EGLLKRNT

Guest
Details From EGLL - London Heathrow
To KRNT - Renton Muni
Flight Number -
Tags Generated
Created
Modified
Stats Distance 4,155 nm / 7,695 km
Max Altitude 0 ft / 0 m
Waypoints 7
Social Downloads 1
Likes 0
Share VATSIM

Download

Looking for another format? Having issues loading an existing format? Contact us
Advertisement - Login to hide

Notes

Generated

Route

EGLL REMSI LILGO CHIPE 6K ENEDY KRNT

ID Type Via Altitude Latitude Longitude Leg Dist Tot Dist Heading (true) Name
O EGLL APT - 0 ft / 0 m 51.46477˚ -0.48695˚ - 0 nm - -
REMSI FIX - 0 ft / 0 m 53.96028˚ -3.82556˚ 192 nm 192 nm 322° / 320° -
LILGO FIX - 0 ft / 0 m 67.43639˚ -51.43139˚ 1560 nm 1753 nm 320° / 277° -
CHIPE FIX - 0 ft / 0 m 53.37000˚ -115.56000˚ 1967 nm 3720 nm 277° / 220° -
6K NDB - 0 ft / 0 m 50.35000˚ -119.26000˚ 227 nm 3948 nm 219° / 216° VERNON NDB
ENEDY FIX - 0 ft / 0 m 47.50046˚ -122.21686˚ 207 nm 4155 nm 215° / 213° -
O KRNT APT - 0 ft / 0 m 47.50047˚ -122.21685˚ 0 nm 4155 nm 23° / 23° -

Altitude Profile

Advertisement - Login to hide

Weather


0- 5 10 15 20 25 30 35+ Temperature / ° C

Clouds and Precipitation
Forecast for 2017-12-12 00:00 UTC. Updated 2 hours ago

Ground ~20,000 ft ~40,000 ft Winds

EGLL

Details ICAO EGLL (LHR)
Name London Heathrow
Region United Kingdom
Timezone Europe/London (UTC+0.0)
Stats Elevation 83 ft / 25 m (AMSL)
Location 51.471218° -0.460978°
Runways 2
Magnetic Variation 0.561° W

METAR

EGLL 120050Z AUTO 29005KT 9999 NCD M01/M04 Q1000 NOSIG

Decode

TAF

TAF EGLL 112259Z 1200/1306 33012KT CAVOK BECMG 1200/1203 27004KT PROB30 TEMPO 1203/1209 6000 PROB30 1216/1222 7000 BECMG 1222/1224 20012KT TEMPO 1222/1306 7000 -RA BKN014 PROB30 TEMPO 1301/1306 3000 RADZ BKN005

Decode

Departure Runways

ID Width Length Bearing (true) Bearing (mag) Surface Threshold Offset Overrun Length
09L 164 ft / 50 m 12,811 ft / 3,905 m 89.64° 90.20° Asphalt 1,004 ft / 306 m 0 ft / 0 m
09R 164 ft / 50 m 12,019 ft / 3,663 m 89.67° 90.23° Asphalt 1,007 ft / 307 m 0 ft / 0 m
27L 164 ft / 50 m 12,019 ft / 3,663 m 269.71° 270.27° Asphalt 0 ft / 0 m 69 ft / 21 m
27R 164 ft / 50 m 12,811 ft / 3,905 m 269.69° 270.25° Asphalt 0 ft / 0 m 69 ft / 21 m

KRNT

Details ICAO KRNT (RNT)
Name Renton Muni
Region United States
Timezone America/Los_Angeles (UTC-8.0)
Stats Elevation 32 ft / 10 m (AMSL)
Location 47.493133° -122.215743°
Runways 1
Magnetic Variation 15.679° E

METAR

KRNT 120053Z 14004KT 10SM CLR 07/02 A3038 RMK AO2 SLP291 T00670017

Decode

TAF

Not found

Destination Runways

ID Width Length Bearing (true) Bearing (mag) Surface Threshold Offset Overrun Length
16 200 ft / 61 m 5,384 ft / 1,641 m 174.16° 158.48° Asphalt 299 ft / 91 m 0 ft / 0 m
34 200 ft / 61 m 5,384 ft / 1,641 m 354.17° 338.49° Asphalt 341 ft / 104 m 210 ft / 64 m